PILOTS ONLINE: 374    ATC ONLINE: 80

CYIK

Ivujivik Airport

Location

IATA YIK
City Ivujivik
Country  Canada
Latitude 62° 25' 2" N
Longitude 77° 55' 31" W
Elevation 126 ft
Type Medium Airport

Map

Weather

METAR
2014/08/28 18:00
CYIK 281800Z 18018KT 15SM FEW030 FEW070 OVC220 13/04 A2978 RMK SC1AC1CS6 SLP086
TAF
2014/08/28 14:00
TAF CYIK 281338Z 2814/2821 16015KT P6SM SCT020 BKN240 
      BECMG 2819/2821 18020G30KT 
      RMK NXT FCST WILL BE ISSUED AT 291345Z

Runways

08/26 3521 ft / 100 ft

Outbound flights

Callsign Flying to Pilot ATD/STD ETA Aircraft

Inbound flights

Callsign Flying from Pilot ATD ETA Aircraft